createdAt,value
2017-08-29T00:01:16.604Z,70.15
2017-08-29T00:03:45.697Z,70.26
2017-08-29T00:06:14.753Z,70.22
2017-08-29T00:08:43.843Z,70.25
2017-08-29T00:11:12.882Z,70.41
2017-08-29T00:13:42.916Z,70.78
2017-08-29T00:16:11.992Z,70.74
2017-08-29T00:18:41.080Z,70.76
2017-08-29T00:21:10.540Z,70.82
2017-08-29T00:23:39.637Z,70.76
2017-08-29T00:26:08.734Z,70.88
2017-08-29T00:28:37.775Z,70.89
2017-08-29T00:31:06.853Z,71.08
2017-08-29T00:33:35.908Z,71.36
2017-08-29T00:36:04.997Z,71.62
2017-08-29T00:38:34.051Z,71.50
2017-08-29T00:41:03.111Z,71.61
2017-08-29T00:43:32.172Z,71.77
2017-08-29T00:46:01.252Z,71.74
2017-08-29T00:48:30.320Z,71.73
2017-08-29T00:50:59.404Z,71.92
2017-08-29T00:53:28.499Z,71.81
2017-08-29T00:55:57.543Z,71.63
2017-08-29T00:58:26.640Z,71.82
2017-08-29T01:00:55.715Z,71.89
2017-08-29T01:03:25.530Z,71.81
2017-08-29T01:05:54.620Z,71.99
2017-08-29T01:08:23.704Z,71.78
2017-08-29T01:10:52.910Z,71.84
2017-08-29T01:13:21.937Z,72.04
2017-08-29T01:15:51.131Z,72.14
2017-08-29T01:18:20.239Z,71.97
2017-08-29T01:20:49.275Z,71.87
2017-08-29T01:23:18.344Z,72.02
2017-08-29T01:25:47.422Z,71.86
2017-08-29T01:28:16.513Z,71.91
2017-08-29T01:30:45.569Z,71.73
2017-08-29T01:33:14.625Z,71.72
2017-08-29T01:35:43.730Z,71.59
2017-08-29T01:38:12.809Z,71.58
2017-08-29T01:40:41.914Z,71.57
2017-08-29T01:43:10.988Z,71.61
2017-08-29T01:45:40.101Z,71.58
2017-08-29T01:48:09.245Z,71.40
2017-08-29T01:50:38.360Z,71.38
2017-08-29T01:53:07.459Z,71.27
2017-08-29T01:55:36.528Z,71.24
2017-08-29T01:58:05.741Z,71.21
2017-08-29T02:00:35.558Z,71.29
2017-08-29T02:03:04.606Z,71.18
2017-08-29T02:05:33.688Z,71.10
2017-08-29T02:08:02.767Z,71.34
2017-08-29T02:10:31.856Z,71.06
2017-08-29T02:13:00.892Z,71.24
2017-08-29T02:15:29.979Z,71.22
2017-08-29T02:17:59.040Z,70.91
2017-08-29T02:20:28.107Z,70.96
2017-08-29T02:22:57.500Z,71.07
2017-08-29T02:25:26.554Z,70.86
2017-08-29T02:27:55.613Z,70.97
2017-08-29T02:30:24.712Z,70.82
2017-08-29T02:32:53.788Z,70.88
2017-08-29T02:35:22.862Z,70.80
2017-08-29T02:37:51.960Z,70.69
2017-08-29T02:40:21.061Z,70.56
2017-08-29T02:42:50.100Z,70.36
2017-08-29T02:45:19.196Z,70.41
2017-08-29T02:47:48.252Z,70.11
2017-08-29T02:50:17.332Z,70.00
2017-08-29T02:52:46.368Z,70.09
2017-08-29T02:55:15.486Z,69.91
2017-08-29T02:57:44.581Z,69.81
2017-08-29T03:00:14.574Z,69.91
2017-08-29T03:02:43.655Z,69.86
2017-08-29T03:05:12.739Z,69.54
2017-08-29T03:07:41.791Z,69.57
2017-08-29T03:10:10.869Z,69.65
2017-08-29T03:12:39.912Z,69.41
2017-08-29T03:15:09.048Z,69.29
2017-08-29T03:17:38.125Z,69.10
2017-08-29T03:20:07.215Z,69.19
2017-08-29T03:22:36.404Z,69.21
2017-08-29T03:25:05.475Z,69.04
2017-08-29T03:27:34.568Z,69.05
2017-08-29T03:30:03.642Z,68.97
2017-08-29T03:32:32.705Z,68.90
2017-08-29T03:35:02.719Z,68.92
2017-08-29T03:37:31.887Z,68.97
2017-08-29T03:40:01.082Z,68.93
2017-08-29T03:42:30.216Z,68.83
2017-08-29T03:44:59.304Z,68.91
2017-08-29T03:47:28.541Z,68.70
2017-08-29T03:49:57.613Z,68.77
2017-08-29T03:52:26.688Z,68.86
2017-08-29T03:54:55.913Z,68.92
2017-08-29T03:57:24.971Z,69.06
2017-08-29T03:59:54.033Z,69.07
2017-08-29T04:02:23.089Z,68.99
2017-08-29T04:04:52.469Z,69.02
2017-08-29T04:07:21.511Z,68.89
2017-08-29T04:09:50.572Z,69.06
2017-08-29T04:12:19.961Z,69.01
2017-08-29T04:14:49.090Z,69.14
2017-08-29T04:17:18.133Z,69.19
2017-08-29T04:19:47.209Z,69.21
2017-08-29T04:22:16.297Z,69.23
2017-08-29T04:24:45.369Z,69.38
2017-08-29T04:27:14.470Z,69.30
2017-08-29T04:29:43.527Z,69.41
2017-08-29T04:32:12.599Z,69.33
2017-08-29T04:34:41.677Z,69.43
2017-08-29T04:37:11.527Z,69.54
2017-08-29T04:39:40.595Z,69.61
2017-08-29T04:42:09.664Z,69.73
2017-08-29T04:44:38.720Z,69.75
2017-08-29T04:47:07.788Z,69.85
2017-08-29T04:49:36.861Z,70.09
2017-08-29T04:52:05.959Z,70.32
2017-08-29T04:54:35.004Z,70.24
2017-08-29T04:57:04.828Z,70.20
2017-08-29T04:59:33.889Z,70.33
2017-08-29T05:02:02.953Z,70.32
2017-08-29T05:04:32.034Z,70.34
2017-08-29T05:07:01.859Z,70.22
2017-08-29T05:09:30.939Z,70.40
2017-08-29T05:12:00.012Z,70.39
2017-08-29T05:14:29.860Z,70.26
2017-08-29T05:16:58.927Z,70.21
2017-08-29T05:19:28.015Z,70.32
2017-08-29T05:21:57.939Z,70.22
2017-08-29T05:24:27.012Z,70.33
2017-08-29T05:26:56.860Z,70.14
2017-08-29T05:29:26.069Z,70.15
2017-08-29T05:31:55.160Z,70.02
2017-08-29T05:34:24.230Z,69.85
2017-08-29T05:36:54.073Z,69.66
2017-08-29T05:39:23.152Z,69.53
2017-08-29T05:41:52.227Z,69.65
2017-08-29T05:44:21.336Z,69.83
2017-08-29T05:46:50.441Z,69.63
2017-08-29T05:49:19.492Z,69.80
2017-08-29T05:51:48.565Z,69.55
2017-08-29T05:54:18.165Z,70.04
2017-08-29T05:56:47.232Z,69.90
2017-08-29T05:59:16.327Z,70.26
2017-08-29T06:01:45.419Z,69.60
2017-08-29T06:04:14.533Z,69.44
2017-08-29T06:06:43.608Z,69.58
2017-08-29T06:09:12.702Z,69.98
2017-08-29T06:11:41.804Z,69.63
2017-08-29T06:14:10.873Z,69.89
2017-08-29T06:16:39.932Z,69.51
2017-08-29T06:19:09.020Z,69.89
2017-08-29T06:21:38.085Z,69.33
2017-08-29T06:24:07.143Z,69.44
2017-08-29T06:26:36.217Z,69.45
2017-08-29T06:29:05.279Z,68.84
2017-08-29T06:31:34.368Z,68.87
2017-08-29T06:34:03.454Z,69.16
2017-08-29T06:36:32.533Z,68.81
2017-08-29T06:39:01.588Z,69.04
2017-08-29T06:41:30.683Z,68.55
2017-08-29T06:43:59.728Z,68.77
2017-08-29T06:46:29.588Z,68.71
2017-08-29T06:48:58.657Z,68.23
2017-08-29T06:51:27.746Z,68.26
2017-08-29T06:53:56.836Z,68.21
2017-08-29T06:56:25.932Z,67.50
2017-08-29T06:58:55.003Z,67.47
2017-08-29T07:01:24.065Z,66.62
2017-08-29T07:03:53.145Z,66.63
2017-08-29T07:06:22.187Z,66.69
2017-08-29T07:08:51.316Z,66.22
2017-08-29T07:11:20.646Z,66.11
2017-08-29T07:13:49.785Z,65.55
2017-08-29T07:16:18.926Z,65.58
2017-08-29T07:18:48.148Z,65.48
2017-08-29T07:21:17.181Z,65.45
2017-08-29T07:23:47.026Z,65.33
2017-08-29T07:26:16.077Z,65.03
2017-08-29T07:28:45.141Z,65.06
2017-08-29T07:31:14.246Z,64.93
2017-08-29T07:33:43.335Z,63.87
2017-08-29T07:36:12.372Z,64.24
2017-08-29T07:38:41.447Z,63.91
2017-08-29T07:41:10.504Z,63.43
2017-08-29T07:43:39.555Z,63.09
2017-08-29T07:46:09.409Z,62.97
2017-08-29T07:48:38.509Z,63.01
2017-08-29T07:51:07.660Z,62.43
2017-08-29T07:53:36.707Z,63.12
2017-08-29T07:56:05.816Z,62.90
2017-08-29T07:58:34.893Z,62.65
2017-08-29T08:01:03.989Z,62.08
2017-08-29T08:03:33.039Z,61.54
2017-08-29T08:06:02.157Z,61.20
2017-08-29T08:08:31.317Z,61.59
2017-08-29T08:11:00.370Z,61.02
2017-08-29T08:13:29.449Z,61.38
2017-08-29T08:15:58.727Z,60.96
2017-08-29T08:18:27.928Z,60.88
2017-08-29T08:20:56.980Z,60.63
2017-08-29T08:23:26.049Z,59.68
2017-08-29T08:25:55.108Z,59.82
2017-08-29T08:28:24.271Z,58.38
2017-08-29T08:30:53.356Z,58.23
2017-08-29T08:33:22.424Z,58.58
2017-08-29T08:35:51.591Z,58.09
2017-08-29T08:38:21.436Z,57.62
2017-08-29T08:40:50.532Z,57.43
2017-08-29T08:43:19.585Z,56.89
2017-08-29T08:45:48.847Z,56.66
2017-08-29T08:48:18.115Z,56.37
2017-08-29T08:50:47.161Z,56.27
2017-08-29T08:53:16.248Z,56.04
2017-08-29T08:55:45.423Z,55.72
2017-08-29T08:58:14.544Z,54.69
2017-08-29T09:00:43.625Z,54.81
2017-08-29T09:03:12.700Z,54.20
2017-08-29T09:05:41.759Z,54.03
2017-08-29T09:08:11.579Z,54.33
2017-08-29T09:10:40.645Z,54.49
2017-08-29T09:13:09.764Z,53.33
2017-08-29T09:15:38.824Z,53.73
2017-08-29T09:18:07.895Z,52.18
2017-08-29T09:20:36.991Z,53.92
2017-08-29T09:23:06.052Z,52.37
2017-08-29T09:25:35.276Z,51.09
2017-08-29T09:28:04.322Z,52.45
2017-08-29T09:30:33.384Z,52.01
2017-08-29T09:33:02.514Z,51.38
2017-08-29T09:35:31.553Z,52.46
2017-08-29T09:38:00.636Z,51.98
2017-08-29T09:40:29.706Z,51.65
2017-08-29T09:42:59.077Z,51.69
2017-08-29T09:45:28.176Z,51.51
2017-08-29T09:47:57.269Z,50.65
2017-08-29T09:50:26.350Z,49.90
2017-08-29T09:52:55.453Z,50.68
2017-08-29T09:55:24.565Z,49.26
2017-08-29T09:57:53.614Z,49.61
2017-08-29T10:00:22.762Z,48.08
2017-08-29T10:02:51.978Z,48.17
2017-08-29T10:05:21.398Z,49.39
2017-08-29T10:07:50.459Z,48.57
2017-08-29T10:10:21.320Z,48.48
2017-08-29T10:12:50.577Z,48.21
2017-08-29T10:15:19.656Z,48.35
2017-08-29T10:17:48.847Z,47.77
2017-08-29T10:20:18.164Z,46.95
2017-08-29T10:22:47.235Z,45.90
2017-08-29T10:25:16.357Z,46.54
2017-08-29T10:27:47.254Z,47.23
2017-08-29T10:30:16.512Z,47.34
2017-08-29T10:32:45.601Z,46.15
2017-08-29T10:35:14.685Z,45.30
2017-08-29T10:37:43.796Z,44.70
2017-08-29T10:40:12.899Z,45.41
2017-08-29T10:42:42.129Z,46.07
2017-08-29T10:45:11.246Z,46.25
2017-08-29T10:47:40.305Z,45.21
2017-08-29T10:50:09.649Z,45.67
2017-08-29T10:52:38.717Z,45.52
2017-08-29T10:55:07.791Z,45.72
2017-08-29T10:57:36.857Z,45.13
2017-08-29T11:00:05.963Z,46.19
2017-08-29T11:02:35.040Z,45.76
2017-08-29T11:05:04.088Z,46.63
2017-08-29T11:07:33.174Z,45.43
2017-08-29T11:10:02.249Z,47.43
2017-08-29T11:12:34.961Z,48.25
2017-08-29T11:15:07.019Z,46.49
2017-08-29T11:17:36.892Z,46.19
2017-08-29T11:20:05.976Z,46.14
2017-08-29T11:22:35.047Z,44.99
2017-08-29T11:25:04.128Z,44.53
2017-08-29T11:27:33.255Z,44.23
2017-08-29T11:30:03.199Z,44.17
2017-08-29T11:32:32.324Z,43.87
2017-08-29T11:35:01.383Z,44.50
2017-08-29T11:37:30.476Z,44.70
2017-08-29T11:39:59.535Z,43.82
2017-08-29T11:42:28.625Z,44.83
2017-08-29T11:44:57.686Z,43.08
2017-08-29T11:47:26.840Z,43.40
2017-08-29T11:49:55.864Z,42.55
2017-08-29T11:52:25.032Z,43.36
2017-08-29T11:54:54.103Z,45.25
2017-08-29T11:57:23.171Z,45.92
2017-08-29T11:59:52.295Z,46.21
2017-08-29T12:02:21.408Z,45.56
2017-08-29T12:04:50.458Z,45.90
2017-08-29T12:07:19.518Z,44.83
2017-08-29T12:09:48.592Z,44.73
2017-08-29T12:12:17.666Z,43.54
2017-08-29T12:14:46.731Z,43.91
2017-08-29T12:17:15.871Z,43.69
2017-08-29T12:19:44.957Z,44.74
2017-08-29T12:22:14.136Z,44.06
2017-08-29T12:24:43.221Z,44.24
2017-08-29T12:27:16.395Z,44.11
2017-08-29T12:29:46.409Z,42.42
2017-08-29T12:32:15.484Z,42.58
2017-08-29T12:34:44.544Z,43.21
2017-08-29T12:37:13.617Z,43.32
2017-08-29T12:39:43.441Z,43.25
2017-08-29T12:42:12.494Z,42.90
2017-08-29T12:44:41.605Z,42.98
2017-08-29T12:47:10.771Z,42.98
2017-08-29T12:49:39.886Z,43.32
2017-08-29T12:52:08.946Z,43.20
2017-08-29T12:54:38.020Z,41.98
2017-08-29T12:57:08.937Z,41.81
2017-08-29T12:59:37.968Z,40.38
2017-08-29T13:02:07.067Z,41.13
2017-08-29T13:04:36.099Z,40.86
2017-08-29T13:07:05.345Z,42.61
2017-08-29T13:09:34.396Z,42.40
2017-08-29T13:12:03.608Z,42.84
2017-08-29T13:14:32.675Z,42.37
2017-08-29T13:17:02.563Z,41.21
2017-08-29T13:19:31.650Z,38.36
2017-08-29T13:22:00.704Z,39.46
2017-08-29T13:24:29.792Z,41.21
2017-08-29T13:26:58.938Z,40.62
2017-08-29T13:29:28.017Z,41.62
2017-08-29T13:31:57.072Z,42.00
2017-08-29T13:34:26.176Z,40.53
2017-08-29T13:36:55.253Z,40.78
2017-08-29T13:39:24.283Z,40.85
2017-08-29T13:41:53.362Z,40.10
2017-08-29T13:44:22.415Z,40.34
2017-08-29T13:46:51.573Z,41.29
2017-08-29T13:49:20.614Z,40.85
2017-08-29T13:51:49.664Z,41.32
2017-08-29T13:54:18.865Z,39.78
2017-08-29T13:56:47.940Z,39.49
2017-08-29T13:59:16.993Z,40.69
2017-08-29T14:01:46.050Z,39.78
2017-08-29T14:04:15.095Z,40.44
2017-08-29T14:06:44.175Z,40.42
2017-08-29T14:09:13.273Z,40.35
2017-08-29T14:11:42.306Z,39.44
2017-08-29T14:14:11.363Z,39.67
2017-08-29T14:16:40.486Z,39.16
2017-08-29T14:19:09.738Z,38.80
2017-08-29T14:21:38.823Z,38.56
2017-08-29T14:24:07.898Z,39.53
2017-08-29T14:26:36.970Z,40.52
2017-08-29T14:29:06.131Z,39.94
2017-08-29T14:31:35.234Z,40.64
2017-08-29T14:34:04.331Z,40.03
2017-08-29T14:36:33.385Z,40.13
2017-08-29T14:39:02.749Z,40.40
2017-08-29T14:41:31.835Z,39.68
2017-08-29T14:44:00.884Z,40.17
2017-08-29T14:46:47.788Z,40.14
2017-08-29T14:49:16.864Z,40.70
2017-08-29T14:51:45.952Z,40.38
2017-08-29T14:54:15.058Z,39.55
2017-08-29T14:56:44.161Z,39.84
2017-08-29T14:59:13.225Z,39.16
2017-08-29T15:01:42.466Z,39.84
2017-08-29T15:04:11.559Z,40.22
2017-08-29T15:06:40.676Z,40.58
2017-08-29T15:09:09.776Z,40.88
2017-08-29T15:11:38.811Z,41.06
2017-08-29T15:14:08.133Z,41.95
2017-08-29T15:16:37.205Z,41.36
2017-08-29T15:19:06.269Z,41.53
2017-08-29T15:21:35.390Z,41.85
2017-08-29T15:24:04.464Z,41.73
2017-08-29T15:26:33.528Z,42.41
2017-08-29T15:29:02.620Z,41.98
2017-08-29T15:31:31.768Z,41.95
2017-08-29T15:34:00.854Z,42.06
2017-08-29T15:36:29.899Z,41.69
2017-08-29T15:38:59.000Z,41.67
2017-08-29T15:41:28.210Z,41.12
2017-08-29T15:43:57.292Z,41.93
2017-08-29T15:46:26.375Z,41.96
2017-08-29T15:48:55.462Z,41.42
2017-08-29T15:51:24.540Z,41.46
2017-08-29T15:53:53.675Z,41.57
2017-08-29T15:56:23.515Z,41.39
2017-08-29T15:58:52.587Z,42.10
2017-08-29T16:01:22.421Z,43.10
2017-08-29T16:03:51.476Z,43.66
2017-08-29T16:06:20.540Z,43.92
2017-08-29T16:08:49.622Z,44.07
2017-08-29T16:11:18.712Z,44.54
2017-08-29T16:13:47.815Z,44.67
2017-08-29T16:16:16.869Z,44.73
2017-08-29T16:18:45.957Z,44.92
2017-08-29T16:21:15.073Z,44.54
2017-08-29T16:23:44.168Z,44.77
2017-08-29T16:26:13.244Z,44.93
2017-08-29T16:28:42.326Z,45.09
2017-08-29T16:31:11.427Z,45.33
2017-08-29T16:33:40.483Z,45.10
2017-08-29T16:36:09.573Z,45.62
2017-08-29T16:38:38.634Z,45.45
2017-08-29T16:41:08.363Z,45.38
2017-08-29T16:43:37.432Z,45.46
2017-08-29T16:46:06.490Z,45.71
2017-08-29T16:48:35.584Z,45.74
2017-08-29T16:51:04.667Z,44.98
2017-08-29T16:53:33.719Z,45.35
2017-08-29T16:56:02.764Z,45.00
2017-08-29T16:58:32.161Z,45.03
2017-08-29T17:01:01.229Z,44.82
2017-08-29T17:03:30.290Z,45.18
2017-08-29T17:05:59.388Z,45.09
2017-08-29T17:08:29.161Z,44.90
2017-08-29T17:10:58.214Z,44.74
2017-08-29T17:13:27.278Z,45.26
2017-08-29T17:15:56.353Z,45.39
2017-08-29T17:18:25.642Z,45.61
2017-08-29T17:20:54.778Z,45.88
2017-08-29T17:23:25.368Z,45.87
2017-08-29T17:25:54.431Z,45.95
2017-08-29T17:28:23.578Z,46.28
2017-08-29T17:30:52.615Z,46.43
2017-08-29T17:33:21.725Z,46.80
2017-08-29T17:35:50.812Z,47.31
2017-08-29T17:38:19.883Z,47.40
2017-08-29T17:40:48.955Z,47.63
2017-08-29T17:43:18.019Z,47.75
2017-08-29T17:45:47.138Z,47.78
2017-08-29T17:48:16.193Z,47.83
2017-08-29T17:50:45.234Z,47.77
2017-08-29T17:53:14.311Z,47.78
2017-08-29T17:55:43.388Z,47.81
2017-08-29T17:58:12.499Z,48.08
2017-08-29T18:00:41.612Z,48.04
2017-08-29T18:03:10.654Z,48.38
2017-08-29T18:05:39.696Z,48.78
2017-08-29T18:08:08.785Z,48.66
2017-08-29T18:10:37.865Z,48.95
2017-08-29T18:13:06.960Z,49.55
2017-08-29T18:15:35.992Z,49.47
2017-08-29T18:18:06.022Z,49.81
2017-08-29T18:20:35.097Z,50.48
2017-08-29T18:23:04.295Z,50.85
2017-08-29T18:25:33.700Z,51.34
2017-08-29T18:28:02.762Z,51.87
2017-08-29T18:30:31.828Z,52.13
2017-08-29T18:33:00.898Z,52.42
2017-08-29T18:35:30.087Z,52.57
2017-08-29T18:37:59.166Z,52.57
2017-08-29T18:40:28.204Z,52.71
2017-08-29T18:42:57.634Z,53.01
2017-08-29T18:45:26.745Z,53.31
2017-08-29T18:47:55.837Z,53.61
2017-08-29T18:50:24.910Z,53.89
2017-08-29T18:52:53.969Z,53.85
2017-08-29T18:55:23.471Z,53.99
2017-08-29T18:57:53.669Z,54.17
2017-08-29T19:00:22.715Z,54.45
2017-08-29T19:02:51.775Z,54.59
2017-08-29T19:05:20.867Z,54.68
2017-08-29T19:07:51.204Z,54.90
2017-08-29T19:10:20.293Z,54.86
2017-08-29T19:12:50.143Z,54.94
2017-08-29T19:15:20.206Z,54.95
2017-08-29T19:17:50.453Z,55.05
2017-08-29T19:20:19.517Z,54.98
2017-08-29T19:22:48.583Z,55.13
2017-08-29T19:25:17.660Z,55.15
2017-08-29T19:27:46.827Z,55.39
2017-08-29T19:30:15.901Z,55.78
2017-08-29T19:32:45.027Z,56.00
2017-08-29T19:35:14.138Z,55.97
2017-08-29T19:37:43.512Z,56.17
2017-08-29T19:40:12.761Z,56.46
2017-08-29T19:42:41.840Z,56.96
2017-08-29T19:45:10.912Z,57.21
2017-08-29T19:47:39.998Z,57.22
2017-08-29T19:50:09.091Z,57.37
2017-08-29T19:52:38.227Z,57.36
2017-08-29T19:55:07.534Z,57.48
2017-08-29T19:57:36.909Z,57.60
2017-08-29T20:00:06.013Z,57.94
2017-08-29T20:02:35.092Z,58.07
2017-08-29T20:05:04.209Z,58.13
2017-08-29T20:07:33.320Z,58.28
2017-08-29T20:10:02.426Z,58.76
2017-08-29T20:12:31.516Z,58.76
2017-08-29T20:15:00.595Z,58.95
2017-08-29T20:17:29.652Z,58.91
2017-08-29T20:19:58.760Z,59.09
2017-08-29T20:22:27.874Z,59.28
2017-08-29T20:24:56.967Z,59.39
2017-08-29T20:27:26.136Z,59.59
2017-08-29T20:29:55.190Z,59.64
2017-08-29T20:32:24.632Z,59.79
2017-08-29T20:34:53.693Z,59.99
2017-08-29T20:37:22.781Z,59.99
2017-08-29T20:39:51.966Z,60.28
2017-08-29T20:42:21.013Z,60.28
2017-08-29T20:44:50.104Z,60.36
2017-08-29T20:47:19.525Z,60.71
2017-08-29T20:49:48.676Z,60.58
2017-08-29T20:52:17.762Z,60.83
2017-08-29T20:54:47.089Z,60.95
2017-08-29T20:57:16.210Z,61.07
2017-08-29T20:59:45.335Z,61.32
2017-08-29T21:02:14.827Z,61.31
2017-08-29T21:04:43.960Z,61.42
2017-08-29T21:07:13.062Z,61.41
2017-08-29T21:09:42.141Z,61.59
2017-08-29T21:12:11.308Z,61.60
2017-08-29T21:14:40.389Z,61.57
2017-08-29T21:17:09.639Z,62.12
2017-08-29T21:19:38.719Z,62.17
2017-08-29T21:22:08.705Z,62.27
2017-08-29T21:24:37.789Z,62.29
2017-08-29T21:27:06.870Z,62.47
2017-08-29T21:29:35.964Z,62.69
2017-08-29T21:32:05.049Z,62.68
2017-08-29T21:34:34.110Z,62.69
2017-08-29T21:37:04.259Z,62.84
2017-08-29T21:39:33.333Z,62.80
2017-08-29T21:42:02.393Z,62.99
2017-08-29T21:44:31.484Z,62.91
2017-08-29T21:47:00.588Z,63.02
2017-08-29T21:49:29.666Z,62.74
2017-08-29T21:51:58.711Z,62.78
2017-08-29T21:54:27.817Z,62.84
2017-08-29T21:56:56.867Z,62.60
2017-08-29T21:59:25.929Z,62.64
2017-08-29T22:01:55.013Z,62.53
2017-08-29T22:04:24.089Z,62.47
2017-08-29T22:06:53.160Z,62.66
2017-08-29T22:09:22.204Z,62.48
2017-08-29T22:11:51.319Z,62.61
2017-08-29T22:14:20.408Z,62.54
2017-08-29T22:16:49.487Z,62.56
2017-08-29T22:19:18.914Z,62.58
2017-08-29T22:21:47.965Z,62.53
2017-08-29T22:24:17.032Z,62.27
2017-08-29T22:26:46.104Z,62.26
2017-08-29T22:29:15.236Z,62.11
2017-08-29T22:31:44.332Z,62.00
2017-08-29T22:34:13.412Z,61.98
2017-08-29T22:36:43.239Z,61.81
2017-08-29T22:39:12.375Z,61.64
2017-08-29T22:41:41.422Z,61.53
2017-08-29T22:44:10.501Z,61.43
2017-08-29T22:46:39.563Z,61.05
2017-08-29T22:49:08.633Z,60.94
2017-08-29T22:51:37.648Z,61.14
2017-08-29T22:54:06.762Z,61.01
2017-08-29T22:56:35.825Z,60.66
2017-08-29T22:59:04.889Z,60.86
2017-08-29T23:01:33.968Z,60.53
2017-08-29T23:04:03.354Z,60.35
2017-08-29T23:06:32.427Z,60.47
2017-08-29T23:09:01.499Z,60.18
2017-08-29T23:11:30.828Z,60.14
2017-08-29T23:13:59.908Z,60.23
2017-08-29T23:16:28.993Z,60.21
2017-08-29T23:18:58.333Z,60.22
2017-08-29T23:21:27.483Z,60.16
2017-08-29T23:23:56.727Z,60.30
2017-08-29T23:26:25.751Z,60.20
2017-08-29T23:28:54.830Z,60.20
2017-08-29T23:31:23.881Z,60.29
2017-08-29T23:33:52.997Z,60.20
2017-08-29T23:36:22.059Z,60.16
2017-08-29T23:38:51.097Z,60.43
2017-08-29T23:41:20.144Z,60.22
2017-08-29T23:43:49.204Z,60.11
2017-08-29T23:46:19.032Z,60.24
2017-08-29T23:48:48.097Z,60.15
2017-08-29T23:51:17.161Z,60.24
2017-08-29T23:53:46.194Z,60.23
2017-08-29T23:56:15.310Z,60.14
2017-08-29T23:58:44.697Z,60.03
